Time;durP1;ratioP1;P1;durP2;ratioP2;P2;SDS_P1;SDS_P2;PMS_P1;PMS_P2;Temp;Humidity;BMP_temperature;BMP_pressure;BME280_temperature;BME280_humidity;BME280_pressure;Samples;Min_cycle;Max_cycle;Signal;HPM_P1;HPM_P2
2022/03/03 00:00:36;;;;;;;52.40;22.85;;;3.80;99.90;;;;;;4182465;28;20103;-86
2022/03/03 00:02:37;;;;;;;57.42;22.80;;;2.60;99.90;;;;;;4164347;28;20052;-87
2022/03/03 00:04:42;;;;;;;61.60;25.35;;;2.60;99.90;;;;;;4181746;28;20096;-87
2022/03/03 00:06:44;;;;;;;57.00;23.95;;;3.10;99.90;;;;;;4165640;28;20053;-87
2022/03/03 00:08:46;;;;;;;54.10;23.23;;;3.30;99.90;;;;;;4183737;28;20045;-87
2022/03/03 00:10:47;;;;;;;59.03;25.13;;;2.70;99.90;;;;;;4183511;28;20112;-86
2022/03/03 00:12:47;;;;;;;59.10;24.27;;;3.30;99.90;;;;;;4182282;28;20048;-87
2022/03/03 00:14:50;;;;;;;59.83;23.92;;;4.10;99.90;;;;;;4167139;28;20050;-87
2022/03/03 00:16:51;;;;;;;57.97;23.95;;;3.60;99.90;;;;;;4182846;28;20503;-87
2022/03/03 00:18:52;;;;;;;57.70;23.83;;;2.70;99.90;;;;;;4166729;28;20171;-87
2022/03/03 00:20:53;;;;;;;58.33;25.27;;;3.70;99.90;;;;;;4182982;28;20124;-87
2022/03/03 00:22:55;;;;;;;60.00;24.85;;;2.70;99.90;;;;;;4184236;28;20029;-87
2022/03/03 00:24:56;;;;;;;58.63;23.08;;;2.70;99.90;;;;;;4185266;28;20119;-86
2022/03/03 00:26:56;;;;;;;61.78;24.65;;;3.00;99.90;;;;;;4183594;28;20033;-87
2022/03/03 00:28:58;;;;;;;61.53;24.38;;;3.70;99.90;;;;;;4184386;28;20445;-86
2022/03/03 00:30:59;;;;;;;56.33;24.63;;;2.70;99.90;;;;;;4165258;28;20156;-87
2022/03/03 00:33:00;;;;;;;59.50;23.23;;;3.60;99.90;;;;;;4181294;28;20049;-87
2022/03/03 00:35:00;;;;;;;59.67;25.13;;;2.70;99.90;;;;;;4181630;28;20052;-87
2022/03/03 00:37:01;;;;;;;65.10;24.00;;;2.60;99.90;;;;;;4170725;28;20123;-88
2022/03/03 00:39:03;;;;;;;60.10;24.20;;;2.60;99.90;;;;;;4183097;28;20493;-86
2022/03/03 00:41:05;;;;;;;75.03;26.83;;;2.70;99.90;;;;;;4182749;28;20426;-88
2022/03/03 00:43:08;;;;;;;65.07;25.45;;;2.70;99.90;;;;;;4181878;28;20073;-86
2022/03/03 00:45:09;;;;;;;63.28;24.25;;;3.60;99.90;;;;;;4183509;28;20212;-86
2022/03/03 00:47:11;;;;;;;61.17;24.63;;;2.60;99.90;;;;;;4169030;28;20032;-87
2022/03/03 00:49:12;;;;;;;62.70;25.35;;;3.60;99.90;;;;;;4181179;28;20037;-87
2022/03/03 00:51:13;;;;;;;66.55;26.25;;;3.60;99.90;;;;;;4183481;28;20037;-87
2022/03/03 00:53:15;;;;;;;61.90;26.70;;;2.60;99.90;;;;;;4179792;28;20118;-87
2022/03/03 00:55:16;;;;;;;63.15;25.23;;;4.10;99.90;;;;;;4163064;28;20056;-87
2022/03/03 00:57:17;;;;;;;54.92;24.25;;;2.60;99.90;;;;;;4182523;28;20045;-88
2022/03/03 00:59:19;;;;;;;63.05;25.38;;;2.60;99.90;;;;;;4178764;28;20041;-88
2022/03/03 01:01:21;;;;;;;57.63;26.05;;;3.30;99.90;;;;;;4150396;28;20133;-86
2022/03/03 01:03:23;;;;;;;56.05;23.60;;;3.80;99.90;;;;;;4182488;28;20081;-86
2022/03/03 01:05:23;;;;;;;63.38;24.70;;;3.40;99.90;;;;;;4167388;28;20045;-87
2022/03/03 01:07:24;;;;;;;56.08;23.30;;;4.00;99.90;;;;;;4166499;28;20057;-87
2022/03/03 01:09:25;;;;;;;59.55;24.25;;;2.50;99.90;;;;;;4150485;28;20046;-86
2022/03/03 01:11:26;;;;;;;60.00;26.08;;;3.20;99.90;;;;;;4168963;28;20044;-87
2022/03/03 01:13:28;;;;;;;58.40;23.73;;;3.40;99.90;;;;;;4149049;28;20508;-87
2022/03/03 01:15:30;;;;;;;55.28;23.73;;;2.70;99.90;;;;;;4149220;28;20068;-88
2022/03/03 01:17:31;;;;;;;52.63;23.58;;;3.30;99.90;;;;;;4165552;28;20088;-88
2022/03/03 01:19:32;;;;;;;56.00;24.35;;;3.60;99.90;;;;;;4166225;28;20057;-88
2022/03/03 01:21:34;;;;;;;52.13;22.55;;;3.40;99.90;;;;;;4165987;28;20099;-88
2022/03/03 01:23:35;;;;;;;51.55;22.15;;;2.30;99.90;;;;;;4165533;28;20121;-88
2022/03/03 01:25:36;;;;;;;52.85;22.88;;;3.20;99.90;;;;;;4167067;28;20128;-87
2022/03/03 01:27:38;;;;;;;55.85;22.85;;;3.30;99.90;;;;;;4165520;28;20538;-87
2022/03/03 01:29:39;;;;;;;56.58;25.13;;;3.10;99.90;;;;;;4165221;28;20045;-88
2022/03/03 01:31:40;;;;;;;55.83;22.55;;;2.10;99.90;;;;;;4165543;28;20438;-86
2022/03/03 01:33:41;;;;;;;53.97;24.40;;;2.80;99.90;;;;;;4182001;28;20406;-86
2022/03/03 01:35:42;;;;;;;54.63;23.58;;;1.20;99.90;;;;;;4166318;28;20048;-87
2022/03/03 01:37:43;;;;;;;52.20;21.73;;;2.80;99.90;;;;;;4165909;28;20081;-87
2022/03/03 01:39:45;;;;;;;50.63;22.13;;;3.20;99.90;;;;;;4166765;28;20037;-87
2022/03/03 01:41:47;;;;;;;54.03;21.73;;;2.20;99.90;;;;;;4149153;28;20223;-86
2022/03/03 01:43:47;;;;;;;50.15;20.95;;;2.00;99.90;;;;;;4164631;28;20462;-87
2022/03/03 01:45:48;;;;;;;47.80;21.40;;;3.10;99.90;;;;;;4165475;28;20038;-87
2022/03/03 01:47:49;;;;;;;53.45;21.52;;;1.80;99.90;;;;;;4169044;28;20048;-87
2022/03/03 01:49:51;;;;;;;47.28;21.08;;;3.10;99.90;;;;;;4164959;28;20084;-87
2022/03/03 01:51:52;;;;;;;52.33;20.65;;;2.90;99.90;;;;;;4181677;28;20131;-87
2022/03/03 01:53:54;;;;;;;52.35;23.08;;;3.00;99.90;;;;;;4182657;28;20045;-86
2022/03/03 01:55:56;;;;;;;52.65;21.15;;;2.40;99.90;;;;;;4182945;28;20052;-87
2022/03/03 01:57:59;;;;;;;55.38;21.85;;;2.40;99.90;;;;;;4183445;28;20041;-86
2022/03/03 02:00:01;;;;;;;53.58;23.35;;;2.80;99.90;;;;;;4165353;28;20050;-86
2022/03/03 02:02:10;;;;;;;53.45;23.65;;;2.30;99.90;;;;;;4181316;28;20041;-87
2022/03/03 02:04:11;;;;;;;56.97;22.60;;;1.40;99.90;;;;;;4182025;28;20052;-86
2022/03/03 02:06:13;;;;;;;45.67;20.83;;;2.50;99.90;;;;;;4165879;28;20085;-86
2022/03/03 02:08:13;;;;;;;50.25;21.38;;;2.50;99.90;;;;;;4182183;28;20600;-86
2022/03/03 02:10:15;;;;;;;54.22;21.25;;;2.80;99.90;;;;;;4183751;28;20041;-88
2022/03/03 02:12:17;;;;;;;49.80;20.83;;;1.30;99.90;;;;;;4165733;28;20057;-87
2022/03/03 02:14:18;;;;;;;51.85;21.10;;;1.50;99.90;;;;;;4165403;28;20782;-87
2022/03/03 02:16:19;;;;;;;50.35;21.10;;;1.30;99.90;;;;;;4165156;28;20553;-87
2022/03/03 02:18:21;;;;;;;54.90;22.25;;;1.30;99.90;;;;;;4164988;28;20053;-87
2022/03/03 02:20:26;;;;;;;48.58;19.92;;;2.40;99.90;;;;;;4181939;28;20041;-87
2022/03/03 02:22:26;;;;;;;55.13;21.75;;;1.60;99.90;;;;;;4183546;28;20041;-87
2022/03/03 02:24:27;;;;;;;47.80;20.23;;;2.30;99.90;;;;;;4181551;28;20198;-87
2022/03/03 02:26:30;;;;;;;51.75;20.92;;;2.30;99.90;;;;;;4183490;28;20560;-86
2022/03/03 02:28:32;;;;;;;48.00;20.15;;;1.20;99.90;;;;;;4182283;28;20062;-86
2022/03/03 02:30:33;;;;;;;52.90;21.77;;;1.20;99.90;;;;;;4198481;28;20091;-87
2022/03/03 02:32:34;;;;;;;50.67;21.90;;;1.80;99.90;;;;;;4181332;28;20550;-87
2022/03/03 02:34:36;;;;;;;47.50;20.02;;;1.90;99.90;;;;;;4165311;28;20049;-87
2022/03/03 02:36:37;;;;;;;48.95;21.40;;;1.20;99.90;;;;;;4164849;28;20097;-87
2022/03/03 02:38:39;;;;;;;52.63;21.65;;;1.10;99.90;;;;;;4183107;28;20445;-87
2022/03/03 02:40:40;;;;;;;50.60;20.95;;;2.30;99.90;;;;;;4165065;28;20053;-87
2022/03/03 02:42:42;;;;;;;50.72;20.73;;;1.10;99.90;;;;;;4182611;28;20518;-87
2022/03/03 02:44:42;;;;;;;49.15;20.05;;;2.30;99.90;;;;;;4183652;28;20041;-87
2022/03/03 02:46:44;;;;;;;50.70;20.52;;;2.20;99.90;;;;;;4182966;28;20497;-86
2022/03/03 02:48:46;;;;;;;50.38;19.52;;;1.80;99.90;;;;;;4182936;28;20048;-87
2022/03/03 02:50:47;;;;;;;58.80;22.17;;;2.60;99.90;;;;;;4165155;28;20057;-86
2022/03/03 02:52:49;;;;;;;44.72;19.83;;;1.90;99.90;;;;;;4165211;28;20080;-87
2022/03/03 02:54:50;;;;;;;49.13;22.35;;;2.00;99.90;;;;;;4183569;28;20453;-87
2022/03/03 02:59:11;;;;;;;47.20;19.77;;;2.30;99.90;;;;;;4186975;28;20071;-88
2022/03/03 03:01:12;;;;;;;56.60;20.35;;;2.20;99.90;;;;;;4185833;28;20550;-86
2022/03/03 03:03:14;;;;;;;53.15;21.75;;;1.50;99.90;;;;;;4185398;28;20128;-87
2022/03/03 03:05:15;;;;;;;48.88;21.20;;;2.20;99.90;;;;;;4168640;28;20041;-86
2022/03/03 03:07:17;;;;;;;52.30;20.73;;;1.80;99.90;;;;;;4168515;28;20578;-86
2022/03/03 03:09:18;;;;;;;48.67;19.65;;;1.80;99.90;;;;;;4185246;28;20056;-86
2022/03/03 03:11:19;;;;;;;51.30;21.27;;;0.50;99.90;;;;;;4185341;28;20052;-86
2022/03/03 03:13:20;;;;;;;49.90;21.33;;;0.90;99.90;;;;;;4169120;28;20041;-86
2022/03/03 03:15:22;;;;;;;55.03;22.75;;;0.80;99.90;;;;;;4169202;28;20053;-86
2022/03/03 03:17:23;;;;;;;53.40;22.15;;;0.70;99.90;;;;;;4186074;28;20056;-87
2022/03/03 03:19:25;;;;;;;55.88;21.33;;;0.90;99.90;;;;;;4185992;28;20045;-87
2022/03/03 03:21:26;;;;;;;50.83;23.17;;;0.70;99.90;;;;;;4169082;28;20046;-87
2022/03/03 03:23:28;;;;;;;54.97;22.38;;;2.00;99.90;;;;;;4185706;28;20411;-87
2022/03/03 03:25:29;;;;;;;50.72;20.98;;;0.70;99.90;;;;;;4185855;28;20189;-87
2022/03/03 03:27:32;;;;;;;54.47;23.38;;;0.90;99.90;;;;;;4185960;28;20049;-87
2022/03/03 03:29:33;;;;;;;53.85;21.40;;;1.60;99.90;;;;;;4185209;28;20041;-87
2022/03/03 03:31:34;;;;;;;48.15;21.45;;;1.80;99.90;;;;;;4185504;28;20053;-88
2022/03/03 03:33:36;;;;;;;47.70;20.17;;;2.20;99.90;;;;;;4185053;28;20111;-88
2022/03/03 03:35:37;;;;;;;51.67;20.95;;;1.50;99.90;;;;;;4186434;28;20095;-87
2022/03/03 03:37:37;;;;;;;53.80;21.90;;;0.80;99.90;;;;;;4184772;28;20049;-87
2022/03/03 03:39:38;;;;;;;57.58;22.15;;;2.00;99.90;;;;;;4184617;28;20048;-87
2022/03/03 03:41:39;;;;;;;51.33;21.42;;;1.50;99.90;;;;;;4184894;28;20060;-87
2022/03/03 03:43:41;;;;;;;62.42;23.52;;;1.50;99.90;;;;;;4184875;28;20048;-87
2022/03/03 03:45:43;;;;;;;55.65;23.75;;;1.20;99.90;;;;;;4186004;28;20166;-87
2022/03/03 03:47:44;;;;;;;51.17;20.95;;;1.50;99.90;;;;;;4185377;28;20045;-87
2022/03/03 03:49:45;;;;;;;56.17;21.58;;;0.60;99.90;;;;;;4168934;28;20118;-87
2022/03/03 03:51:47;;;;;;;53.83;23.00;;;0.70;99.90;;;;;;4167916;28;20115;-87
2022/03/03 03:53:48;;;;;;;53.10;21.17;;;1.40;99.90;;;;;;4186163;28;20474;-87
2022/03/03 03:55:51;;;;;;;49.08;21.90;;;1.40;99.90;;;;;;4186297;28;20384;-87
2022/03/03 03:57:53;;;;;;;54.13;22.15;;;0.60;99.90;;;;;;4186153;28;20052;-87
2022/03/03 03:59:53;;;;;;;56.50;22.75;;;2.10;99.90;;;;;;4169102;28;20049;-87
2022/03/03 04:01:54;;;;;;;54.42;22.10;;;0.70;99.90;;;;;;4168407;28;20488;-86
2022/03/03 04:03:57;;;;;;;57.25;23.65;;;0.70;99.90;;;;;;4185943;28;20622;-87
2022/03/03 04:06:00;;;;;;;53.50;20.98;;;0.90;99.90;;;;;;4186287;28;20120;-87
2022/03/03 04:08:01;;;;;;;54.63;22.23;;;2.10;99.90;;;;;;4185245;28;20049;-87
2022/03/03 04:10:02;;;;;;;55.88;22.30;;;2.10;99.90;;;;;;4186587;28;20049;-87
2022/03/03 04:12:03;;;;;;;54.67;23.25;;;0.70;99.90;;;;;;4185105;28;20083;-88
2022/03/03 04:14:04;;;;;;;56.28;24.25;;;0.70;99.90;;;;;;4168119;28;20107;-88
2022/03/03 04:16:06;;;;;;;55.08;23.15;;;0.80;99.90;;;;;;4184447;28;20473;-87
2022/03/03 04:18:07;;;;;;;55.97;21.90;;;0.80;99.90;;;;;;4185129;28;20041;-85
2022/03/03 04:20:08;;;;;;;53.47;22.08;;;2.20;99.90;;;;;;4184464;28;20059;-87
2022/03/03 04:22:09;;;;;;;56.63;22.80;;;0.70;99.90;;;;;;4185964;28;20037;-86
2022/03/03 04:24:10;;;;;;;49.35;21.48;;;0.60;99.90;;;;;;4170603;28;20091;-87
2022/03/03 04:26:17;;;;;;;48.78;20.95;;;1.10;99.90;;;;;;4186991;28;20083;-87
2022/03/03 04:28:19;;;;;;;52.15;22.45;;;0.40;99.90;;;;;;4186044;28;20048;-87
2022/03/03 04:30:21;;;;;;;55.72;22.65;;;2.20;99.90;;;;;;4186382;28;20045;-87
2022/03/03 04:32:21;;;;;;;49.80;21.27;;;0.80;99.90;;;;;;4186272;28;20068;-88
2022/03/03 04:34:25;;;;;;;57.40;23.83;;;0.90;99.90;;;;;;4184228;28;20053;-88
2022/03/03 04:36:28;;;;;;;52.83;21.25;;;0.80;99.90;;;;;;4185100;28;20053;-88
2022/03/03 04:38:28;;;;;;;53.28;21.40;;;0.70;99.90;;;;;;4169483;28;20056;-88
2022/03/03 04:40:29;;;;;;;54.38;23.08;;;0.50;99.90;;;;;;4187300;28;20094;-88
2022/03/03 04:42:30;;;;;;;50.60;21.60;;;2.00;99.90;;;;;;4168864;28;20530;-87
2022/03/03 04:44:31;;;;;;;56.60;21.48;;;2.20;99.90;;;;;;4187870;28;20037;-88
2022/03/03 04:46:33;;;;;;;54.33;21.65;;;2.10;99.90;;;;;;4188371;28;20041;-88
2022/03/03 04:48:35;;;;;;;48.20;21.17;;;1.30;99.90;;;;;;4163192;28;20045;-88
2022/03/03 04:50:36;;;;;;;51.90;21.70;;;1.30;99.90;;;;;;4170860;28;20561;-87
2022/03/03 04:52:37;;;;;;;58.40;21.85;;;0.10;99.90;;;;;;4173682;28;20037;-88
2022/03/03 04:54:42;;;;;;;52.45;20.63;;;0.60;99.90;;;;;;4159603;28;20120;-87
2022/03/03 04:56:43;;;;;;;53.22;21.67;;;0.50;99.90;;;;;;4175755;28;20128;-88
2022/03/03 04:58:46;;;;;;;55.42;22.85;;;1.70;99.90;;;;;;4176982;28;20042;-87
2022/03/03 05:00:48;;;;;;;50.47;22.08;;;0.90;99.90;;;;;;4185125;28;20053;-88
2022/03/03 05:02:49;;;;;;;59.25;24.00;;;0.80;99.90;;;;;;4193059;28;20076;-87
2022/03/03 05:04:50;;;;;;;48.38;21.35;;;1.30;99.90;;;;;;4173953;28;20132;-88
2022/03/03 05:06:58;;;;;;;51.78;21.83;;;1.20;99.90;;;;;;4181670;28;20041;-89
2022/03/03 05:09:01;;;;;;;55.03;22.23;;;0.50;99.90;;;;;;4188640;28;20045;-89
2022/03/03 05:11:03;;;;;;;50.13;21.25;;;0.00;99.90;;;;;;4188987;28;20557;-89
2022/03/03 05:13:05;;;;;;;48.22;20.52;;;0.50;99.90;;;;;;4188343;28;20093;-89
2022/03/03 05:15:08;;;;;;;53.60;20.17;;;1.20;99.90;;;;;;4186736;28;20129;-89
2022/03/03 05:17:09;;;;;;;53.50;21.52;;;0.40;99.90;;;;;;4168998;28;20076;-89
2022/03/03 05:19:11;;;;;;;52.53;21.85;;;1.50;99.90;;;;;;4184391;28;20049;-89
2022/03/03 05:21:13;;;;;;;48.20;19.48;;;1.50;99.90;;;;;;4169319;28;20053;-89
2022/03/03 05:23:15;;;;;;;50.83;20.90;;;0.40;99.90;;;;;;4185442;28;20057;-89
2022/03/03 05:25:17;;;;;;;50.65;21.67;;;0.40;99.90;;;;;;4169098;28;20073;-88
2022/03/03 05:27:18;;;;;;;51.17;20.48;;;0.30;99.90;;;;;;4185876;28;20040;-87
2022/03/03 05:29:27;;;;;;;53.33;22.48;;;0.30;99.90;;;;;;4187045;28;20097;-88
2022/03/03 05:31:31;;;;;;;62.17;21.27;;;0.30;99.90;;;;;;4185678;28;20045;-88
2022/03/03 05:33:35;;;;;;;47.97;20.25;;;-0.60;99.90;;;;;;4186372;28;20123;-88
2022/03/03 05:35:39;;;;;;;51.00;22.17;;;1.80;99.90;;;;;;4168117;28;20050;-87
2022/03/03 05:37:40;;;;;;;53.28;20.02;;;0.00;99.90;;;;;;4174776;28;20068;-87
2022/03/03 05:39:43;;;;;;;53.60;20.02;;;0.20;99.90;;;;;;4168991;28;20435;-88
2022/03/03 05:41:45;;;;;;;54.67;22.65;;;0.30;99.90;;;;;;4150436;28;20041;-88
2022/03/03 05:43:47;;;;;;;51.25;20.30;;;-0.80;99.90;;;;;;4168037;28;20045;-88
2022/03/03 05:45:50;;;;;;;51.03;20.75;;;1.10;99.90;;;;;;4173318;28;20040;-88
2022/03/03 05:47:52;;;;;;;51.10;20.95;;;0.30;99.90;;;;;;4174815;28;20098;-88
2022/03/03 05:49:55;;;;;;;54.83;23.75;;;0.30;99.90;;;;;;4185433;28;20033;-88
2022/03/03 05:52:04;;;;;;;53.78;22.25;;;0.20;99.90;;;;;;4185818;28;20072;-88
2022/03/03 05:54:07;;;;;;;;;;;0.30;99.90;;;;;;4184862;28;20458;-89
2022/03/03 05:56:10;;;;;;;52.47;20.15;;;0.20;99.90;;;;;;4185498;28;19928;-89
2022/03/03 05:58:15;;;;;;;53.95;20.90;;;0.10;99.90;;;;;;4185889;28;20056;-89
2022/03/03 06:00:17;;;;;;;51.55;21.60;;;1.10;99.90;;;;;;4186294;28;20040;-89
2022/03/03 06:02:20;;;;;;;54.00;20.92;;;0.20;99.90;;;;;;4186424;28;20081;-87
2022/03/03 06:04:26;;;;;;;48.40;21.65;;;0.80;99.90;;;;;;4185642;28;20049;-88
2022/03/03 06:06:31;;;;;;;56.22;22.40;;;0.20;99.90;;;;;;4169764;28;20419;-87
2022/03/03 06:08:41;;;;;;;51.53;20.58;;;1.20;99.90;;;;;;4168242;28;20479;-88
2022/03/03 06:10:53;;;;;;;52.70;22.30;;;0.10;99.90;;;;;;4168463;28;20049;-88
2022/03/03 06:13:06;;;;;;;56.42;21.67;;;0.20;99.90;;;;;;4184441;28;20041;-88
2022/03/03 06:15:07;;;;;;;50.47;21.42;;;0.20;99.90;;;;;;4184412;28;20076;-88
2022/03/03 06:17:09;;;;;;;52.92;21.33;;;0.20;99.90;;;;;;4185751;28;20045;-88
2022/03/03 06:19:12;;;;;;;49.88;21.08;;;1.30;99.90;;;;;;4169276;28;20041;-88
2022/03/03 06:21:15;;;;;;;51.80;21.00;;;0.80;99.90;;;;;;4186288;28;20043;-89
2022/03/03 06:23:16;;;;;;;53.35;24.17;;;0.00;99.90;;;;;;4186478;28;20045;-88
2022/03/03 06:25:18;;;;;;;54.40;21.88;;;0.10;99.90;;;;;;4186880;28;20517;-89
2022/03/03 06:27:21;;;;;;;55.50;22.35;;;0.10;99.90;;;;;;4184977;28;20049;-88
2022/03/03 06:29:23;;;;;;;60.67;22.90;;;0.90;99.90;;;;;;4167946;28;20143;-88
2022/03/03 06:31:26;;;;;;;57.50;22.95;;;0.10;99.90;;;;;;4187285;28;20132;-89
2022/03/03 06:33:28;;;;;;;51.97;20.75;;;0.10;99.90;;;;;;4189528;28;20045;-89
2022/03/03 06:35:35;;;;;;;52.47;23.52;;;0.10;99.90;;;;;;4188913;28;20044;-89
2022/03/03 06:37:36;;;;;;;54.30;22.50;;;0.10;99.90;;;;;;4189657;28;20083;-88
2022/03/03 06:39:37;;;;;;;53.63;21.92;;;1.40;99.90;;;;;;4189048;28;20398;-87
2022/03/03 06:41:44;;;;;;;54.00;23.42;;;1.10;99.90;;;;;;4187664;28;20593;-88
2022/03/03 06:43:46;;;;;;;60.88;23.40;;;0.20;99.90;;;;;;4189388;28;20049;-89
2022/03/03 06:45:48;;;;;;;51.58;21.60;;;0.50;99.90;;;;;;4172091;28;20085;-89
2022/03/03 06:47:49;;;;;;;56.00;23.10;;;0.60;99.90;;;;;;4187879;28;20127;-89
2022/03/03 06:49:51;;;;;;;57.22;23.02;;;0.00;99.90;;;;;;4170735;28;20049;-89
2022/03/03 06:51:55;;;;;;;56.08;22.52;;;1.20;99.90;;;;;;4188806;28;20430;-88
2022/03/03 06:54:02;;;;;;;52.17;21.88;;;0.50;99.90;;;;;;4187213;28;20123;-89
2022/03/03 06:56:08;;;;;;;57.85;22.52;;;0.30;99.90;;;;;;4204494;28;20045;-89
2022/03/03 06:58:18;;;;;;;61.70;24.27;;;1.60;99.90;;;;;;4187471;28;20052;-88
2022/03/03 07:00:22;;;;;;;58.78;23.73;;;1.30;99.90;;;;;;4170497;28;20049;-89
2022/03/03 07:02:23;;;;;;;56.92;22.30;;;0.50;99.90;;;;;;4186808;28;20053;-88
2022/03/03 07:04:26;;;;;;;56.42;23.70;;;1.80;99.90;;;;;;4186582;28;20151;-87
2022/03/03 07:06:28;;;;;;;61.67;23.35;;;1.50;99.90;;;;;;4204020;28;20088;-88
2022/03/03 07:08:31;;;;;;;58.92;23.33;;;1.60;99.90;;;;;;4188480;28;20474;-88
2022/03/03 07:10:33;;;;;;;53.55;23.92;;;1.50;99.90;;;;;;4187249;28;20076;-88
2022/03/03 07:12:35;;;;;;;59.55;24.08;;;1.20;99.90;;;;;;4202460;28;20075;-88
2022/03/03 07:14:35;;;;;;;50.65;20.73;;;2.60;99.90;;;;;;4185541;28;20483;-88
2022/03/03 07:16:40;;;;;;;55.83;23.08;;;2.70;99.90;;;;;;4185878;28;20113;-87
2022/03/03 07:18:45;;;;;;;54.15;22.42;;;1.90;99.90;;;;;;4186519;28;20041;-87
2022/03/03 07:21:05;;;;;;;56.03;24.48;;;3.30;99.90;;;;;;4168635;28;20065;-88
2022/03/03 07:23:32;;;;;;;55.40;21.20;;;2.00;99.90;;;;;;4186480;28;20057;-89
2022/03/03 07:25:51;;;;;;;56.83;23.38;;;2.00;99.90;;;;;;4169347;28;20076;-89
2022/03/03 07:27:54;;;;;;;;;;;3.50;99.90;;;;;;4185999;28;20403;-88
2022/03/03 07:30:05;;;;;;;51.17;22.42;;;2.10;99.90;;;;;;4168071;28;19929;-89
2022/03/03 07:32:07;;;;;;;57.33;22.92;;;2.10;99.90;;;;;;4184679;28;20053;-89
2022/03/03 07:34:10;;;;;;;53.63;23.25;;;2.30;99.90;;;;;;4168407;28;20575;-89
2022/03/03 07:36:18;;;;;;;51.10;21.88;;;4.00;99.90;;;;;;4184909;28;20080;-89
2022/03/03 07:38:19;;;;;;;51.90;22.02;;;3.20;99.90;;;;;;4184188;28;20055;-89
2022/03/03 07:40:20;;;;;;;50.72;21.38;;;3.10;99.90;;;;;;4168050;28;20057;-89
2022/03/03 07:42:22;;;;;;;52.08;22.50;;;4.10;99.90;;;;;;4167037;28;20059;-88
2022/03/03 07:44:23;;;;;;;53.53;21.67;;;4.10;99.90;;;;;;4185423;28;20178;-89
2022/03/03 07:46:27;;;;;;;50.83;22.52;;;3.60;99.90;;;;;;4168353;28;20054;-88
2022/03/03 07:48:29;;;;;;;56.00;23.13;;;4.20;99.90;;;;;;4167528;28;20128;-88
2022/03/03 07:50:31;;;;;;;49.05;21.75;;;4.90;99.90;;;;;;4185678;28;20068;-88
2022/03/03 07:52:34;;;;;;;49.72;21.33;;;3.70;99.90;;;;;;4167935;28;20526;-88
2022/03/03 07:54:35;;;;;;;55.20;22.92;;;4.80;99.90;;;;;;4183406;28;20527;-89
2022/03/03 07:56:43;;;;;;;47.95;22.48;;;4.70;99.90;;;;;;4184086;28;20041;-88
2022/03/03 07:58:45;;;;;;;49.83;21.75;;;4.00;99.90;;;;;;4168319;28;20057;-88
2022/03/03 08:00:53;;;;;;;49.83;22.67;;;4.40;99.90;;;;;;4182530;28;20049;-89
2022/03/03 08:02:59;;;;;;;49.40;21.80;;;5.40;99.90;;;;;;4184069;28;20499;-89
2022/03/03 08:05:04;;;;;;;49.88;21.35;;;6.40;99.90;;;;;;4183839;28;20049;-88
2022/03/03 08:07:07;;;;;;;46.58;21.23;;;5.40;99.90;;;;;;4183804;28;20562;-88
2022/03/03 08:09:09;;;;;;;49.95;21.35;;;5.70;99.90;;;;;;4183497;28;20045;-88
2022/03/03 08:11:10;;;;;;;45.95;20.92;;;6.30;99.90;;;;;;4165503;28;20103;-88
2022/03/03 08:13:13;;;;;;;46.33;21.05;;;;;;;;;;4182299;28;20088;-88
2022/03/03 08:15:14;;;;;;;49.10;22.23;;;;;;;;;;4182381;28;20048;-88
2022/03/03 08:17:15;;;;;;;45.80;22.02;;;;;;;;;;4165570;28;20059;-88
2022/03/03 08:19:17;;;;;;;44.97;19.92;;;;;;;;;;4182642;28;20049;-91
2022/03/03 08:21:18;;;;;;;46.08;19.67;;;;;;;;;;4183326;28;20045;-89
2022/03/03 08:23:20;;;;;;;45.05;21.27;;;;;;;;;;4183301;28;20440;-86
2022/03/03 08:25:22;;;;;;;43.45;20.92;;;;;;;;;;4181962;28;20040;-87
2022/03/03 08:27:24;;;;;;;50.55;23.17;;;;;;;;;;4181845;28;20055;-87
2022/03/03 08:29:26;;;;;;;48.03;21.52;;;;;;;;;;4183998;28;20437;-87
2022/03/03 08:31:35;;;;;;;42.50;21.17;;;;;;;;;;4182799;28;20045;-87
2022/03/03 08:33:50;;;;;;;41.22;19.90;;;;;;;;;;4183565;28;20057;-88
2022/03/03 08:35:53;;;;;;;45.92;23.27;;;;;;;;;;4183064;28;20534;-88
2022/03/03 08:37:58;;;;;;;40.22;20.20;;;;;;;;;;4181397;28;20491;-88
2022/03/03 08:40:00;;;;;;;42.50;19.70;;;;;;;;;;4183158;28;20411;-88
2022/03/03 08:42:02;;;;;;;41.75;21.20;;;;;;;;;;4182028;28;20487;-88
2022/03/03 08:44:04;;;;;;;40.92;20.00;;;;;;;;;;4181839;28;20045;-88
2022/03/03 08:46:07;;;;;;;39.47;19.67;;;;;;;;;;4181732;28;20423;-88
2022/03/03 08:48:14;;;;;;;39.22;20.40;;;;;;;;;;4183778;28;20051;-88
2022/03/03 08:50:16;;;;;;;42.15;20.80;;;;;;;;;;4182627;28;20415;-88
2022/03/03 08:52:18;;;;;;;41.55;21.58;;;;;;;;;;4184310;28;20051;-88
2022/03/03 08:54:19;;;;;;;37.33;19.63;;;;;;;;;;4183388;28;20458;-88
2022/03/03 08:56:22;;;;;;;40.25;18.52;;;;;;;;;;4182355;28;20071;-87
2022/03/03 08:58:23;;;;;;;40.10;20.55;;;;;;;;;;4183576;28;20490;-87
2022/03/03 09:00:25;;;;;;;36.05;19.05;;;;;;;;;;4183289;28;20411;-87
2022/03/03 09:02:26;;;;;;;38.25;19.23;;;;;;;;;;4183188;28;20044;-87
2022/03/03 09:04:29;;;;;;;37.20;20.27;;;;;;;;;;4182991;28;20123;-88
2022/03/03 09:06:31;;;;;;;35.83;18.88;;;;;;;;;;4183465;28;20041;-87
2022/03/03 09:08:33;;;;;;;33.67;17.75;;;;;;;;;;4183596;28;20049;-87
2022/03/03 09:10:34;;;;;;;38.63;18.98;;;;;;;;;;4183498;28;20498;-88
2022/03/03 09:12:35;;;;;;;33.42;17.73;;;;;;;;;;4183023;28;20071;-88
2022/03/03 09:14:36;;;;;;;33.33;17.42;;;;;;;;;;4182956;28;20048;-88
2022/03/03 09:16:39;;;;;;;33.95;17.50;;;;;;;;;;4182024;28;20049;-88
2022/03/03 09:18:40;;;;;;;32.00;18.10;;;;;;;;;;4182758;28;20605;-89
2022/03/03 09:20:41;;;;;;;33.83;17.85;;;;;;;;;;4181816;28;20130;-88
2022/03/03 09:22:43;;;;;;;32.53;17.10;;;;;;;;;;4182982;28;20059;-89
2022/03/03 09:24:44;;;;;;;32.67;17.05;;;;;;;;;;4182795;28;20060;-87
2022/03/03 09:26:46;;;;;;;32.22;17.10;;;;;;;;;;4182965;28;20060;-88
2022/03/03 09:28:47;;;;;;;29.95;16.55;;;;;;;;;;4181345;28;20518;-89
2022/03/03 09:30:51;;;;;;;30.20;17.02;;;;;;;;;;4166107;28;20046;-89
2022/03/03 09:32:52;;;;;;;33.70;17.42;;;;;;;;;;4164719;28;20115;-89
2022/03/03 09:34:53;;;;;;;28.65;16.02;;;;;;;;;;4165762;28;20100;-90
2022/03/03 09:36:55;;;;;;;34.53;17.10;;;;;;;;;;4181896;28;20053;-88
2022/03/03 09:38:56;;;;;;;29.27;16.58;;;;;;;;;;4183945;28;20510;-88
2022/03/03 09:40:57;;;;;;;28.98;16.13;;;;;;;;;;4187415;28;20055;-87
2022/03/03 09:43:00;;;;;;;31.63;17.30;;;;;;;;;;4189122;28;20045;-88
2022/03/03 09:45:02;;;;;;;29.67;15.07;;;;;;;;;;4182869;28;20122;-87
2022/03/03 09:47:04;;;;;;;36.25;17.15;;;;;;;;;;4165463;28;20045;-88
2022/03/03 09:49:06;;;;;;;34.50;17.90;;;;;;;;;;4183047;28;20560;-87
2022/03/03 09:51:07;;;;;;;32.55;16.65;;;;;;;;;;4182689;28;20033;-87
2022/03/03 09:53:09;;;;;;;31.90;17.50;;;;;;;;;;4182757;28;20394;-87
2022/03/03 09:55:10;;;;;;;29.38;15.55;;;;;;;;;;4181548;28;20112;-87
2022/03/03 09:57:11;;;;;;;28.13;14.77;;;;;;;;;;4181526;28;20045;-87
2022/03/03 09:59:14;;;;;;;25.27;14.82;;;;;;;;;;4182308;28;20045;-87
2022/03/03 10:01:17;;;;;;;23.48;14.32;;;;;;;;;;4182425;28;20045;-86
2022/03/03 10:03:18;;;;;;;25.73;14.40;;;;;;;;;;4182548;28;20071;-86
2022/03/03 10:05:32;;;;;;;26.45;15.25;;;;;;;;;;4182966;28;20537;-87
2022/03/03 10:07:33;;;;;;;24.88;13.93;;;;;;;;;;4185876;28;20099;-87
2022/03/03 10:09:59;;;;;;;25.90;15.73;;;;;;;;;;4185119;28;20044;-87
2022/03/03 10:12:03;;;;;;;29.05;14.95;;;;;;;;;;4184678;28;20099;-88
2022/03/03 10:14:04;;;;;;;27.42;14.73;;;;;;;;;;4185239;28;20045;-88
2022/03/03 10:16:05;;;;;;;27.77;14.30;;;;;;;;;;4185404;28;20048;-85
2022/03/03 10:18:09;;;;;;;24.35;14.77;;;;;;;;;;4185340;28;20098;-87
2022/03/03 10:20:10;;;;;;;30.58;15.80;;;;;;;;;;4185217;28;20044;-87
2022/03/03 10:22:11;;;;;;;23.40;13.52;;;;;;;;;;4184010;28;20091;-87
2022/03/03 10:24:21;;;;;;;21.88;13.43;;;;;;;;;;4186071;28;20048;-87
2022/03/03 10:26:33;;;;;;;28.55;15.10;;;;;;;;;;4185749;28;20088;-87
2022/03/03 10:28:35;;;;;;;26.90;14.32;;;;;;;;;;4185526;28;20403;-87
2022/03/03 10:30:48;;;;;;;24.05;14.18;;;;;;;;;;4185633;28;20398;-86
2022/03/03 10:32:49;;;;;;;23.65;14.23;;;;;;;;;;4184023;28;20100;-87
2022/03/03 10:34:56;;;;;;;22.35;13.25;;;;;;;;;;4185675;28;20048;-87
2022/03/03 10:36:58;;;;;;;20.77;12.88;;;;;;;;;;4185148;28;20097;-87
2022/03/03 10:39:00;;;;;;;22.20;13.45;;;;;;;;;;4185237;28;20049;-88
2022/03/03 10:41:01;;;;;;;23.25;13.35;;;;;;;;;;4175873;28;20045;-88
2022/03/03 10:43:02;;;;;;;21.60;13.15;;;;;;;;;;4181979;28;20105;-88
2022/03/03 10:45:06;;;;;;;21.08;13.35;;;;;;;;;;4185294;28;20482;-88
2022/03/03 10:47:08;;;;;;;23.40;13.57;;;;;;;;;;4184983;28;20090;-89
2022/03/03 10:49:22;;;;;;;21.52;12.65;;;;;;;;;;4183615;28;20103;-89
2022/03/03 10:51:25;;;;;;;22.45;12.68;;;;;;;;;;4184800;28;20045;-88